Flight Track Log - Related Links

Times and Time Zones

All times are in EDT time to prevent confusion due to time zone crossing. See the EVA554 flight status page for this flight to view local times or setup timezone preferences in your user account.

Time Position Orientation Groundspeed Altitude Reporting Facility
EDT Latitude Longitude Course Direction KTS MPH feet Rate Location/Type
Tue 09:50:00 PM -30.1764 153.1095 358° North  Level FlightAware Approximate
Tue 09:51:00 PM -30.1099 153.1063 358° North  Level FlightAware Approximate
Tue 09:51:27 PM -30.2250 153.1187 358° North 173 199 5,000  Level Aus ATC (RADAR)
Tue 09:52:16 PM -30.1795 153.1175 359° North 193 222 6,400 1,788 Climbing Aus ATC (RADAR)
Tue 09:53:11 PM -30.1315 153.1139 356° North 185 213 8,100 1,768 Climbing Aus ATC (RADAR)
Tue 09:53:51 PM -30.0963 153.1102 355° North 187 215 9,200 1,642 Climbing Aus ATC (RADAR)
Tue 09:54:46 PM -30.0471 153.1109 North 191 220 10,700 1,491 Climbing Aus ATC (RADAR)
Tue 09:56:36 PM -29.9451 153.1344 11° North 202 232 13,300 1,309 Climbing Aus ATC (RADAR)
Tue 09:57:31 PM -29.8921 153.1472 12° North 214 246 14,300 1,143 Climbing Aus ATC (RADAR)
Tue 09:58:21 PM -29.8428 153.1584 11° North 217 250 15,300 1,275 Climbing Aus ATC (RADAR)
Tue 09:58:51 PM -29.8133 153.1654 12° North 215 247 16,000 1,100 Climbing Aus ATC (RADAR)
Tue 09:59:21 PM -29.7834 153.1726 12° North 219 252 16,400 1,050 Climbing Aus ATC (RADAR)
Tue 10:00:11 PM -29.7318 153.1820 North 223 257 17,400 729 Climbing Aus ATC (RADAR)
Tue 10:01:41 PM -29.6351 153.2025 10° North 250 288 18,100 242 Climbing Aus ATC (RADAR)
Tue 10:02:40 PM -29.5696 153.2175 11° North 232 267 18,000 -61 Descending Aus ATC (RADAR)
Tue 10:03:20 PM -29.5294 153.2278 13° North 223 257 18,000  Level Aus ATC (RADAR)
Tue 10:04:00 PM -29.4892 153.2385 13° North 223 257 18,000  Level Aus ATC (RADAR)
Tue 10:04:55 PM -29.4335 153.2519 12° North 223 257 18,000  Level Aus ATC (RADAR)
Tue 10:06:50 PM -29.3192 153.2844 14° North 218 251 18,000  Level Aus ATC (RADAR)
Tue 10:07:50 PM -29.2588 153.2939 North 219 252 18,000  Level Aus ATC (RADAR)
Tue 10:08:40 PM -29.2090 153.3013 North 215 247 18,000  Level Aus ATC (RADAR)
Tue 10:09:20 PM -29.1707 153.2919 348° North 211 243 18,000  Level Aus ATC (RADAR)
Tue 10:10:10 PM -29.1226 153.2824 350° North 210 242 18,000  Level Aus ATC (RADAR)
Tue 10:11:40 PM -29.0346 153.2630 349° North 214 246 18,000  Level Aus ATC (RADAR)
Tue 10:12:24 PM -28.9907 153.2529 349° North 214 246 18,000  Level Aus ATC (RADAR)
Tue 10:13:14 PM -28.9419 153.2420 349° North 213 245 18,000  Level Aus ATC (RADAR)
Tue 10:14:14 PM -28.8832 153.2286 349° North 214 246 18,000  Level Aus ATC (RADAR)
Tue 10:15:00 PM -28.8358 153.2371 North 229 264 18,000  Level Aus ATC (RADAR)
Tue 10:16:09 PM -28.7610 153.2535 11° North 235 270 18,000  Level Aus ATC (RADAR)
Tue 10:16:49 PM -28.7187 153.2612 North 232 267 18,000  Level Aus ATC (RADAR)
Tue 10:17:44 PM -28.6598 153.2645 North 229 264 18,000  Level Aus ATC (RADAR)
Tue 10:18:29 PM -28.6117 153.2671 North 231 266 18,000  Level Aus ATC (RADAR)
Tue 10:19:04 PM -28.5744 153.2688 North 229 264 18,000  Level Aus ATC (RADAR)
Tue 10:19:59 PM -28.5168 153.2710 North 226 260 18,000 -206 Level Aus ATC (RADAR)
Tue 10:21:59 PM -28.3725 153.2785 North 285 328 17,400 -500 Descending Aus ATC (RADAR)
Tue 10:22:59 PM -28.2877 153.2850 North 309 356 16,500 -914 Descending Aus ATC (RADAR)
Tue 10:23:44 PM -28.2216 153.2888 North 316 364 15,800 -911 Descending Aus ATC (RADAR)
Tue 10:24:18 PM -28.1707 153.2925 North 316 364 15,300 -876 Descending Aus ATC (RADAR)
Tue 10:25:13 PM -28.0946 153.2999 North 295 339 14,500 -1,280 Descending Aus ATC (RADAR)
Tue 10:26:48 PM -27.9681 153.3150 North 286 329 12,100 -1,500 Descending Aus ATC (RADAR)
Tue 10:27:33 PM -27.9158 153.2889 336° Northwest 274 315 11,000 -1,473 Descending Aus ATC (RADAR)
Tue 10:28:38 PM -27.8413 153.2489 335° Northwest 273 314 9,400 -1,440 Descending Aus ATC (RADAR)
Tue 10:29:13 PM -27.8015 153.2273 334° Northwest 272 313 8,600 -1,263 Descending Aus ATC (RADAR)
Tue 10:30:13 PM -27.7398 153.1912 333° Northwest 245 282 7,400 -1,200 Descending Aus ATC (RADAR)
Tue 10:30:48 PM -27.7090 153.1645 322° Northwest 240 276 6,700 -1,152 Descending Aus ATC (RADAR)
Tue 10:32:18 PM -27.6289 153.1001 325° Northwest 231 266 5,000 -1,076 Descending Aus ATC (RADAR)
Tue 10:33:13 PM -27.5825 153.0623 324° Northwest 223 257 4,100 -1,080 Descending Aus ATC (RADAR)
Tue 10:33:58 PM -27.5422 153.0468 341° North 207 238 3,200 -1,271 Descending Aus ATC (RADAR)
Tue 10:34:38 PM -27.5091 153.0583 17° North 184 212 2,300 -1,011 Descending Aus ATC (RADAR)
Tue 10:35:33 PM -27.4740 153.0781 27° Northeast 150 173 1,600 -675 Descending Aus ATC (RADAR)
Tue 10:37:18 PM -27.4202 153.1086 27° Northeast 116 133 500 -629 Descending Aus ATC (RADAR)
Tue 10:38:13 PM -27.3935 153.1232 26° Northeast 112 129 -545 Descending Aus ATC (RADAR)

Login

Don't have an account? Register now (free) for customized features, flight alerts, and more!